Airfield :
LOGIN :

Register | Disclaimer

   EN    FR    IT 

 










Legend :    VFR   Marginal VFR   IFR   Intensive IFR   Very Intensive IFR
Visi :
Ceiling :
>= 8 km
>= 3000ft
5 to 8 km
1000 to 3000 ft
1500m to 5 km
500 to 1000 ft
800 to 1500m
200 to 500 ft
< 800m
< 200 ft
Symbols :   Thunderstorms  Fog  Heavy snow  Heavy precipitations  Wind > 20 kt
SIGMETs :     Misc.  Thunderstorms  Icing  Turbulence  Mountain Waves  Volcanic Ashes






- Airport Elevation : 302 ft
- IATA code : CGN


EDDK - Cologne Bonn

CURRENT METAR :
  • 231550Z AUTO 35005KT 320V030 CAVOK 20/11 Q1015 NOSIG

EXPIRED METARs :
  • 231520Z AUTO 36004KT 320V020 CAVOK 21/09 Q1015 NOSIG
  • 231450Z AUTO 23005KT 190V330 CAVOK 22/08 Q1015 NOSIG
  • 231420Z AUTO 21004KT 110V240 CAVOK 22/10 Q1015 NOSIG
  • 231350Z AUTO 22004KT 170V320 CAVOK 21/08 Q1015 NOSIG
  • 231320Z AUTO VRB04KT CAVOK 22/10 Q1015 NOSIG
  • 231250Z AUTO 32006KT 290V360 CAVOK 20/10 Q1015 NOSIG
  • 231220Z AUTO 29007KT 210V330 9999 SCT048 21/10 Q1015 NOSIG
  • 231150Z AUTO 32005KT 260V360 9999 FEW046 20/10 Q1015 NOSIG
  • 231120Z AUTO 26006KT 180V350 9999 FEW045 21/10 Q1015 NOSIG

TAF TAF EDDK
Valid from the 23 at 12:00 until the 24 at 18:00 UTC


231100Z 2312/2418 26006KT 9999 SCT040
PROB30
TEMPO 2313/2317 TSRA BKN030CB
BECMG 2317/2320 13003KT
TEMPO 2406/2413 4000 RA BR BKN008
BECMG 2409/2412 35005KT
PROB30
TEMPO 2410/2418 16015G25KT 2000 +TSRA BKN010CB
TEMPO 2413/2418 SHRA BKN020CB



MET'MAP, your aeronautical weather chart ! - Copyright ORBIFLY December 2007 - Disclaimer

ORBIFLY MET'MAP TEAM :

Programming & Development : Alexandra Zaïnal
Original concept : Baudouin d'Aumeries
Technical & hardware support : Manuel Goepfert
Assistance : Marc-Olivier Méhu




SOURCES & CREDITS :

   NOAA